createdAt,value
2023-01-20T00:00:05.402Z,0.73
2023-01-20T00:02:42.643Z,0.98
2023-01-20T00:05:13.856Z,0.80
2023-01-20T00:07:45.008Z,0.82
2023-01-20T00:12:46.744Z,0.80
2023-01-20T00:15:18.165Z,0.90
2023-01-20T00:20:20.108Z,0.70
2023-01-20T00:22:51.192Z,0.85
2023-01-20T00:27:56.631Z,0.90
2023-01-20T00:30:27.786Z,0.98
2023-01-20T00:32:59.425Z,0.95
2023-01-20T00:35:30.748Z,1.00
2023-01-20T00:38:01.717Z,0.90
2023-01-20T00:40:32.760Z,0.90
2023-01-20T00:45:34.415Z,1.00
2023-01-20T00:50:36.499Z,0.90
2023-01-20T00:53:07.562Z,1.00
2023-01-20T00:58:09.485Z,0.90
2023-01-20T01:00:40.636Z,0.75
2023-01-20T01:03:14.497Z,0.80
2023-01-20T01:05:46.373Z,0.70
2023-01-20T01:08:17.354Z,0.95
2023-01-20T01:10:48.335Z,0.90
2023-01-20T01:13:19.407Z,0.90
2023-01-20T01:15:51.821Z,0.70
2023-01-20T01:18:23.242Z,0.80
2023-01-20T01:20:55.907Z,0.80
2023-01-20T01:23:27.225Z,1.00
2023-01-20T01:25:58.785Z,0.95
2023-01-20T01:28:29.895Z,0.85
2023-01-20T01:31:08.873Z,0.90
2023-01-20T01:33:40.589Z,0.90
2023-01-20T01:36:15.389Z,0.90
2023-01-20T01:38:57.949Z,0.90
2023-01-20T01:41:30.082Z,0.90
2023-01-20T01:44:08.687Z,0.93
2023-01-20T01:46:40.212Z,1.05
2023-01-20T01:52:06.520Z,1.00
2023-01-20T01:54:40.687Z,0.90
2023-01-20T01:57:11.941Z,0.90
2023-01-20T01:59:42.903Z,1.00
2023-01-20T02:02:13.792Z,0.80
2023-01-20T02:04:46.943Z,0.82
2023-01-20T02:07:21.683Z,1.05
2023-01-20T02:09:52.808Z,1.02
2023-01-20T02:12:25.052Z,1.00
2023-01-20T02:14:58.493Z,0.80
2023-01-20T02:17:35.455Z,0.90
2023-01-20T02:20:52.139Z,1.02
2023-01-20T02:23:35.321Z,0.90
2023-01-20T02:26:21.592Z,0.90
2023-01-20T02:29:10.811Z,0.73
2023-01-20T02:32:11.927Z,0.80
2023-01-20T02:34:55.582Z,0.60
2023-01-20T02:37:31.699Z,0.82
2023-01-20T02:40:08.939Z,0.93
2023-01-20T02:42:44.031Z,1.42
2023-01-20T02:45:36.332Z,0.98
2023-01-20T02:48:37.402Z,0.60
2023-01-20T02:51:22.950Z,0.70
2023-01-20T02:54:00.387Z,0.63
2023-01-20T02:56:32.388Z,0.68
2023-01-20T02:59:13.887Z,0.55
2023-01-20T03:04:30.012Z,0.60
2023-01-20T03:07:02.626Z,0.75
2023-01-20T03:09:37.901Z,0.60
2023-01-20T03:12:23.847Z,0.52
2023-01-20T03:14:55.178Z,0.60
2023-01-20T03:17:26.626Z,0.73
2023-01-20T03:22:28.384Z,0.60
2023-01-20T03:25:01.016Z,0.80
2023-01-20T03:27:33.122Z,0.80
2023-01-20T03:30:04.305Z,0.70
2023-01-20T03:32:35.186Z,0.70
2023-01-20T03:37:36.876Z,0.63
2023-01-20T03:40:08.753Z,0.70
2023-01-20T03:43:08.902Z,0.60
2023-01-20T03:45:40.081Z,0.70
2023-01-20T03:48:31.278Z,0.60
2023-01-20T03:51:09.261Z,0.60
2023-01-20T03:54:02.355Z,0.70
2023-01-20T03:56:42.136Z,0.50
2023-01-20T03:59:14.533Z,0.60
2023-01-20T04:01:47.205Z,0.60
2023-01-20T04:04:20.932Z,0.60
2023-01-20T04:06:52.846Z,0.70
2023-01-20T04:09:30.602Z,0.60
2023-01-20T04:12:02.062Z,0.60
2023-01-20T04:14:33.372Z,0.60
2023-01-20T04:17:05.658Z,0.52
2023-01-20T04:19:36.770Z,1.10
2023-01-20T04:22:16.815Z,0.70
2023-01-20T04:25:10.243Z,0.70
2023-01-20T04:27:42.703Z,0.65
2023-01-20T04:30:15.526Z,0.70
2023-01-20T04:32:46.391Z,0.77
2023-01-20T04:35:20.900Z,0.63
2023-01-20T04:37:52.056Z,0.70
2023-01-20T04:40:23.318Z,0.60
2023-01-20T04:42:54.410Z,0.60
2023-01-20T04:45:25.445Z,0.55
2023-01-20T04:47:56.290Z,0.50
2023-01-20T04:50:27.447Z,1.00
2023-01-20T04:53:00.637Z,0.90
2023-01-20T04:55:31.754Z,0.70
2023-01-20T04:58:02.657Z,0.70
2023-01-20T05:00:33.794Z,0.80
2023-01-20T05:03:05.202Z,0.70
2023-01-20T05:05:36.254Z,0.70
2023-01-20T05:08:07.375Z,0.60
2023-01-20T05:10:38.333Z,0.70
2023-01-20T05:13:09.492Z,0.50
2023-01-20T05:15:42.775Z,0.57
2023-01-20T05:18:13.831Z,0.70
2023-01-20T05:20:47.822Z,0.50
2023-01-20T05:23:19.584Z,0.50
2023-01-20T05:25:54.227Z,0.70
2023-01-20T05:28:25.439Z,0.50
2023-01-20T05:30:56.650Z,0.52
2023-01-20T05:33:28.011Z,0.50
2023-01-20T05:35:59.552Z,0.70
2023-01-20T05:38:30.400Z,0.70
2023-01-20T05:41:05.615Z,0.75
2023-01-20T05:43:36.815Z,0.60
2023-01-20T05:46:08.012Z,0.70
2023-01-20T05:51:09.833Z,0.57
2023-01-20T05:53:41.011Z,0.80
2023-01-20T05:56:14.277Z,0.82
2023-01-20T05:58:45.326Z,0.70
2023-01-20T06:01:16.826Z,0.60
2023-01-20T06:03:48.027Z,0.70
2023-01-20T06:08:51.090Z,0.52
2023-01-20T06:13:53.317Z,0.60
2023-01-20T06:16:24.298Z,0.70
2023-01-20T06:21:26.529Z,0.60
2023-01-20T06:23:57.463Z,0.70
2023-01-20T06:26:28.527Z,0.60
2023-01-20T06:29:03.050Z,0.73
2023-01-20T06:31:33.965Z,0.75
2023-01-20T06:34:04.913Z,0.80
2023-01-20T06:36:36.512Z,0.70
2023-01-20T06:39:07.758Z,0.80
2023-01-20T06:41:39.025Z,0.55
2023-01-20T06:44:10.289Z,0.98
2023-01-20T06:46:41.342Z,0.70
2023-01-20T06:49:12.463Z,0.63
2023-01-20T06:51:43.660Z,0.80
2023-01-20T06:54:14.681Z,0.80
2023-01-20T06:56:45.966Z,0.80
2023-01-20T06:59:17.046Z,0.85
2023-01-20T07:01:48.182Z,1.08
2023-01-20T07:04:19.400Z,0.80
2023-01-20T07:06:50.492Z,0.80
2023-01-20T07:09:21.342Z,0.80
2023-01-20T07:11:52.546Z,0.90
2023-01-20T07:14:24.168Z,0.80
2023-01-20T07:16:55.615Z,0.70
2023-01-20T07:19:26.758Z,0.80
2023-01-20T07:21:57.783Z,0.70
2023-01-20T07:24:28.618Z,0.80
2023-01-20T07:26:59.438Z,1.17
2023-01-20T07:29:30.531Z,0.90
2023-01-20T07:32:01.664Z,0.77
2023-01-20T07:34:32.896Z,0.80
2023-01-20T07:37:04.364Z,0.70
2023-01-20T07:39:37.697Z,1.00
2023-01-20T07:42:08.862Z,0.80
2023-01-20T07:44:39.830Z,0.82
2023-01-20T07:47:10.930Z,0.80
2023-01-20T07:49:42.314Z,1.10
2023-01-20T07:52:13.430Z,1.10
2023-01-20T07:54:44.307Z,0.70
2023-01-20T07:57:15.343Z,1.17
2023-01-20T07:59:46.352Z,1.00
2023-01-20T08:02:17.446Z,0.80
2023-01-20T08:04:48.811Z,0.98
2023-01-20T08:07:19.828Z,0.68
2023-01-20T08:09:51.673Z,0.75
2023-01-20T08:12:22.888Z,0.80
2023-01-20T08:14:53.849Z,0.90
2023-01-20T08:17:25.325Z,1.00
2023-01-20T08:19:56.274Z,1.00
2023-01-20T08:22:27.346Z,1.10
2023-01-20T08:24:58.433Z,1.00
2023-01-20T08:27:29.508Z,0.73
2023-01-20T08:30:00.618Z,0.90
2023-01-20T08:32:33.322Z,1.25
2023-01-20T08:35:04.437Z,1.20
2023-01-20T08:37:38.992Z,0.90
2023-01-20T08:40:11.222Z,1.02
2023-01-20T08:42:43.536Z,1.23
2023-01-20T08:45:14.805Z,0.85
2023-01-20T08:47:47.506Z,1.00
2023-01-20T08:50:18.789Z,0.70
2023-01-20T08:52:49.995Z,0.80
2023-01-20T08:55:22.437Z,0.70
2023-01-20T08:57:53.491Z,0.77
2023-01-20T09:00:25.013Z,0.80
2023-01-20T09:02:56.391Z,1.00
2023-01-20T09:05:28.593Z,0.90
2023-01-20T09:07:59.591Z,1.10
2023-01-20T09:10:30.759Z,1.00
2023-01-20T09:13:01.705Z,1.00
2023-01-20T09:15:32.721Z,1.10
2023-01-20T09:18:03.655Z,1.13
2023-01-20T09:20:34.671Z,1.02
2023-01-20T09:23:05.798Z,0.90
2023-01-20T09:25:36.960Z,0.90
2023-01-20T09:28:08.256Z,1.20
2023-01-20T09:30:39.290Z,0.90
2023-01-20T09:33:12.026Z,1.05
2023-01-20T09:35:43.062Z,0.93
2023-01-20T09:38:34.805Z,0.98
2023-01-20T09:41:34.695Z,1.10
2023-01-20T09:44:15.293Z,1.00
2023-01-20T09:47:14.772Z,1.10
2023-01-20T09:50:07.063Z,1.65
2023-01-20T09:52:59.444Z,1.10
2023-01-20T09:55:48.940Z,1.15
2023-01-20T09:58:31.921Z,1.00
2023-01-20T10:01:12.451Z,1.30
2023-01-20T10:04:07.665Z,0.93
2023-01-20T10:06:59.691Z,1.60
2023-01-20T10:09:43.999Z,1.30
2023-01-20T10:12:34.415Z,1.02
2023-01-20T10:15:39.401Z,1.05
2023-01-20T10:18:42.816Z,1.10
2023-01-20T10:21:15.902Z,1.35
2023-01-20T10:24:00.036Z,1.58
2023-01-20T10:26:55.698Z,1.08
2023-01-20T10:29:32.050Z,1.20
2023-01-20T10:32:05.272Z,1.30
2023-01-20T10:34:56.921Z,1.15
2023-01-20T10:37:28.467Z,1.38
2023-01-20T10:40:06.665Z,1.27
2023-01-20T10:42:38.175Z,1.30
2023-01-20T10:45:30.950Z,1.30
2023-01-20T10:48:13.843Z,1.17
2023-01-20T10:51:09.407Z,1.10
2023-01-20T10:54:16.786Z,1.20
2023-01-20T10:56:57.056Z,1.05
2023-01-20T10:59:42.735Z,1.27
2023-01-20T11:02:25.226Z,1.10
2023-01-20T11:05:21.037Z,1.48
2023-01-20T11:07:53.001Z,1.10
2023-01-20T11:10:26.951Z,1.23
2023-01-20T11:13:01.043Z,1.05
2023-01-20T11:15:40.447Z,1.25
2023-01-20T11:18:17.971Z,1.13
2023-01-20T11:21:02.017Z,1.20
2023-01-20T11:23:41.889Z,1.17
2023-01-20T11:26:28.410Z,1.05
2023-01-20T11:29:02.375Z,1.10
2023-01-20T11:31:52.179Z,1.20
2023-01-20T11:34:37.032Z,1.10
2023-01-20T11:37:08.371Z,1.10
2023-01-20T11:39:46.099Z,1.00
2023-01-20T11:42:22.050Z,1.15
2023-01-20T11:45:20.306Z,1.00
2023-01-20T11:48:16.452Z,1.00
2023-01-20T11:50:51.763Z,0.90
2023-01-20T11:53:28.043Z,0.90
2023-01-20T11:56:07.202Z,0.90
2023-01-20T11:58:54.022Z,0.90
2023-01-20T12:01:30.710Z,1.13
2023-01-20T12:04:28.926Z,1.10
2023-01-20T12:07:16.450Z,1.10
2023-01-20T12:09:51.290Z,0.95
2023-01-20T12:12:40.400Z,1.00
2023-01-20T12:15:24.764Z,1.20
2023-01-20T12:18:06.634Z,1.30
2023-01-20T12:20:54.969Z,1.20
2023-01-20T12:23:50.177Z,1.10
2023-01-20T12:26:23.255Z,0.90
2023-01-20T12:29:07.213Z,1.40
2023-01-20T12:31:38.311Z,1.65
2023-01-20T12:34:22.844Z,1.00
2023-01-20T12:37:18.513Z,1.00
2023-01-20T12:39:54.957Z,1.00
2023-01-20T12:42:50.842Z,0.90
2023-01-20T12:45:40.119Z,0.90
2023-01-20T12:48:23.341Z,1.00
2023-01-20T12:51:09.773Z,0.90
2023-01-20T12:54:09.056Z,0.82
2023-01-20T12:56:46.095Z,0.93
2023-01-20T12:59:54.858Z,1.75
2023-01-20T13:02:40.271Z,1.10
2023-01-20T13:05:49.604Z,1.10
2023-01-20T13:08:26.554Z,1.30
2023-01-20T13:11:16.746Z,0.90
2023-01-20T13:14:10.867Z,0.98
2023-01-20T13:17:00.278Z,1.20
2023-01-20T13:19:34.760Z,1.10
2023-01-20T13:22:26.484Z,1.10
2023-01-20T13:24:59.710Z,1.08
2023-01-20T13:27:34.827Z,0.93
2023-01-20T13:30:09.692Z,0.88
2023-01-20T13:32:46.672Z,1.30
2023-01-20T13:35:20.463Z,1.00
2023-01-20T13:38:01.121Z,1.02
2023-01-20T13:40:41.123Z,1.00
2023-01-20T13:43:36.819Z,1.13
2023-01-20T13:46:07.944Z,1.00
2023-01-20T13:48:40.148Z,0.90
2023-01-20T13:51:29.174Z,1.10
2023-01-20T13:54:35.546Z,1.00
2023-01-20T13:57:29.490Z,1.08
2023-01-20T14:00:00.606Z,1.05
2023-01-20T14:02:42.022Z,1.10
2023-01-20T14:05:23.877Z,0.90
2023-01-20T14:10:25.208Z,1.05
2023-01-20T14:12:56.091Z,1.10
2023-01-20T14:15:37.319Z,1.05
2023-01-20T14:18:17.149Z,0.95
2023-01-20T14:21:03.793Z,0.90
2023-01-20T14:23:40.099Z,1.23
2023-01-20T14:26:17.314Z,1.17
2023-01-20T14:29:02.086Z,0.98
2023-01-20T14:31:38.902Z,0.90
2023-01-20T14:34:33.725Z,0.90
2023-01-20T14:37:19.482Z,1.15
2023-01-20T14:39:51.922Z,1.08
2023-01-20T14:42:24.938Z,1.10
2023-01-20T14:44:59.390Z,1.30
2023-01-20T14:47:40.546Z,1.20
2023-01-20T14:50:15.989Z,1.05
2023-01-20T14:52:50.347Z,1.30
2023-01-20T14:55:54.815Z,1.00
2023-01-20T14:58:26.285Z,1.00
2023-01-20T15:01:00.262Z,0.93
2023-01-20T15:03:32.413Z,0.93
2023-01-20T15:06:12.707Z,1.15
2023-01-20T15:08:48.478Z,0.90
2023-01-20T15:11:27.160Z,1.00
2023-01-20T15:14:03.848Z,0.93
2023-01-20T15:16:46.189Z,1.10
2023-01-20T15:19:17.900Z,1.02
2023-01-20T15:24:19.809Z,0.93
2023-01-20T15:29:24.589Z,1.10
2023-01-20T15:31:57.289Z,0.90
2023-01-20T15:34:29.690Z,0.90
2023-01-20T15:37:00.837Z,0.95
2023-01-20T15:39:35.917Z,1.02
2023-01-20T15:42:10.948Z,0.90
2023-01-20T15:44:42.077Z,1.00
2023-01-20T15:47:28.617Z,1.30
2023-01-20T15:50:00.284Z,1.20
2023-01-20T15:52:32.799Z,0.90
2023-01-20T15:55:03.780Z,0.95
2023-01-20T15:57:34.918Z,1.20
2023-01-20T16:00:08.262Z,1.00
2023-01-20T16:02:42.517Z,1.05
2023-01-20T16:05:17.149Z,0.90
2023-01-20T16:07:50.930Z,0.95
2023-01-20T16:10:22.383Z,1.00
2023-01-20T16:12:53.741Z,0.82
2023-01-20T16:15:24.959Z,1.23
2023-01-20T16:17:56.077Z,1.10
2023-01-20T16:20:27.699Z,1.10
2023-01-20T16:25:29.865Z,1.00
2023-01-20T16:28:01.146Z,1.27
2023-01-20T16:30:32.455Z,1.23
2023-01-20T16:33:04.980Z,1.10
2023-01-20T16:35:36.826Z,1.27
2023-01-20T16:38:07.736Z,1.38
2023-01-20T16:40:38.793Z,1.20
2023-01-20T16:43:12.637Z,1.38
2023-01-20T16:45:44.019Z,1.10
2023-01-20T16:48:15.745Z,1.10
2023-01-20T16:50:46.834Z,1.10
2023-01-20T16:53:18.788Z,1.50
2023-01-20T16:58:21.030Z,1.00
2023-01-20T17:00:52.218Z,1.00
2023-01-20T17:03:26.997Z,1.20
2023-01-20T17:05:58.847Z,1.40
2023-01-20T17:08:29.912Z,1.10
2023-01-20T17:11:00.922Z,1.35
2023-01-20T17:13:31.774Z,1.25
2023-01-20T17:16:02.778Z,1.27
2023-01-20T17:18:33.981Z,1.23
2023-01-20T17:21:09.033Z,1.08
2023-01-20T17:23:40.207Z,0.90
2023-01-20T17:26:12.259Z,1.13
2023-01-20T17:31:14.109Z,1.10
2023-01-20T17:33:48.833Z,1.33
2023-01-20T17:36:20.236Z,1.08
2023-01-20T17:38:51.384Z,1.13
2023-01-20T17:41:22.743Z,1.50
2023-01-20T17:43:53.544Z,1.50
2023-01-20T17:46:27.480Z,1.40
2023-01-20T17:49:00.123Z,1.50
2023-01-20T17:54:04.081Z,1.45
2023-01-20T17:56:35.414Z,1.38
2023-01-20T17:59:06.358Z,1.30
2023-01-20T18:01:37.311Z,1.50
2023-01-20T18:04:11.740Z,1.42
2023-01-20T18:06:42.630Z,1.75
2023-01-20T18:09:15.577Z,1.45
2023-01-20T18:11:46.679Z,1.63
2023-01-20T18:14:17.696Z,1.27
2023-01-20T18:16:49.019Z,1.15
2023-01-20T18:21:50.879Z,1.40
2023-01-20T18:24:22.030Z,1.40
2023-01-20T18:26:53.396Z,1.30
2023-01-20T18:29:24.390Z,1.20
2023-01-20T18:31:56.025Z,1.20
2023-01-20T18:36:58.026Z,1.40
2023-01-20T18:39:29.789Z,1.23
2023-01-20T18:42:00.659Z,0.93
2023-01-20T18:44:31.955Z,1.17
2023-01-20T18:47:03.315Z,1.30
2023-01-20T18:52:05.614Z,1.38
2023-01-20T18:54:38.667Z,1.30
2023-01-20T18:57:09.924Z,1.13
2023-01-20T18:59:43.303Z,1.05
2023-01-20T19:02:14.942Z,1.10
2023-01-20T19:07:16.641Z,1.30
2023-01-20T19:09:48.974Z,1.25
2023-01-20T19:12:20.105Z,1.10
2023-01-20T19:14:52.673Z,1.13
2023-01-20T19:17:23.877Z,1.02
2023-01-20T19:19:54.983Z,1.02
2023-01-20T19:22:26.089Z,1.60
2023-01-20T19:24:57.151Z,1.08
2023-01-20T19:27:27.998Z,1.20
2023-01-20T19:29:58.918Z,1.48
2023-01-20T19:32:30.870Z,1.20
2023-01-20T19:35:01.956Z,1.00
2023-01-20T19:37:34.042Z,1.05
2023-01-20T19:40:04.915Z,1.30
2023-01-20T19:42:35.801Z,1.10
2023-01-20T19:45:07.519Z,1.25
2023-01-20T19:47:38.516Z,1.15
2023-01-20T19:50:11.114Z,1.00
2023-01-20T19:55:12.509Z,1.00
2023-01-20T19:57:43.561Z,1.00
2023-01-20T20:00:15.396Z,0.90
2023-01-20T20:02:46.488Z,1.10
2023-01-20T20:05:18.256Z,0.98
2023-01-20T20:10:20.341Z,1.15
2023-01-20T20:12:51.617Z,1.10
2023-01-20T20:15:22.489Z,0.93
2023-01-20T20:17:56.753Z,1.10
2023-01-20T20:20:27.944Z,1.10
2023-01-20T20:22:59.084Z,1.08
2023-01-20T20:25:30.495Z,0.90
2023-01-20T20:28:01.458Z,0.88
2023-01-20T20:30:32.946Z,1.10
2023-01-20T20:33:03.778Z,1.00
2023-01-20T20:35:38.091Z,1.05
2023-01-20T20:38:09.129Z,1.00
2023-01-20T20:40:40.006Z,1.10
2023-01-20T20:43:11.183Z,1.00
2023-01-20T20:45:42.287Z,0.90
2023-01-20T20:48:13.394Z,0.90
2023-01-20T20:50:45.449Z,1.00
2023-01-20T20:55:47.432Z,0.90
2023-01-20T20:58:18.496Z,0.82
2023-01-20T21:00:53.346Z,2.38
2023-01-20T21:03:24.318Z,2.42
2023-01-20T21:05:55.396Z,0.90
2023-01-20T21:08:29.426Z,0.90
2023-01-20T21:11:04.945Z,1.10
2023-01-20T21:13:36.213Z,1.00
2023-01-20T21:16:13.100Z,0.98
2023-01-20T21:18:44.585Z,0.90
2023-01-20T21:23:51.021Z,0.70
2023-01-20T21:26:22.256Z,0.77
2023-01-20T21:28:53.466Z,0.80
2023-01-20T21:31:28.040Z,0.80
2023-01-20T21:34:00.194Z,0.70
2023-01-20T21:36:33.784Z,0.52
2023-01-20T21:39:06.812Z,0.70
2023-01-20T21:41:37.662Z,0.60
2023-01-20T21:44:30.125Z,0.75
2023-01-20T21:47:06.241Z,0.70
2023-01-20T21:49:55.329Z,0.60
2023-01-20T21:52:45.554Z,0.70
2023-01-20T21:55:20.619Z,0.75
2023-01-20T21:57:52.568Z,0.80
2023-01-20T22:00:23.738Z,0.80
2023-01-20T22:02:54.511Z,0.80
2023-01-20T22:05:25.542Z,0.80
2023-01-20T22:07:56.714Z,0.95
2023-01-20T22:10:27.859Z,1.02
2023-01-20T22:12:58.952Z,1.00
2023-01-20T22:15:31.278Z,1.30
2023-01-20T22:18:02.332Z,0.80
2023-01-20T22:20:33.371Z,1.10
2023-01-20T22:23:04.431Z,1.42
2023-01-20T22:25:39.534Z,0.80
2023-01-20T22:28:10.560Z,0.88
2023-01-20T22:30:41.478Z,1.00
2023-01-20T22:33:12.370Z,0.70
2023-01-20T22:35:43.427Z,0.95
2023-01-20T22:40:45.318Z,0.60
2023-01-20T22:43:16.535Z,0.90
2023-01-20T22:45:48.492Z,0.80
2023-01-20T22:48:19.870Z,0.73
2023-01-20T22:50:50.899Z,0.82
2023-01-20T22:56:00.822Z,0.70
2023-01-20T22:58:32.910Z,0.80
2023-01-20T23:01:03.962Z,0.70
2023-01-20T23:03:35.033Z,0.70
2023-01-20T23:06:06.189Z,0.73
2023-01-20T23:08:37.682Z,0.60
2023-01-20T23:11:11.488Z,0.70
2023-01-20T23:13:43.337Z,0.70
2023-01-20T23:16:19.717Z,0.60
2023-01-20T23:18:51.939Z,0.63
2023-01-20T23:21:23.426Z,0.60
2023-01-20T23:23:57.459Z,0.60
2023-01-20T23:26:31.050Z,0.68
2023-01-20T23:29:02.090Z,0.70
2023-01-20T23:31:34.943Z,0.60
2023-01-20T23:34:06.064Z,0.70
2023-01-20T23:36:37.189Z,0.60
2023-01-20T23:41:38.540Z,0.68
2023-01-20T23:44:10.668Z,1.20
2023-01-20T23:46:42.138Z,0.90
2023-01-20T23:49:13.591Z,0.60
2023-01-20T23:54:15.642Z,0.80
2023-01-20T23:56:46.673Z,0.80
2023-01-20T23:59:17.792Z,0.65
